createdAt,value
2023-04-05T00:11:17.692Z,21.80
2023-04-05T00:26:21.578Z,19.80
2023-04-05T00:41:24.189Z,21.30
2023-04-05T00:56:28.317Z,20.80
2023-04-05T01:11:33.572Z,21.20
2023-04-05T01:26:53.052Z,20.60
2023-04-05T01:42:01.218Z,20.70
2023-04-05T01:57:05.130Z,20.40
2023-04-05T02:12:07.687Z,17.60
2023-04-05T02:27:10.790Z,17.50
2023-04-05T02:42:13.594Z,16.60
2023-04-05T02:57:16.337Z,16.20
2023-04-05T03:12:19.254Z,13.90
2023-04-05T03:27:21.934Z,14.70
2023-04-05T03:42:24.908Z,15.50
2023-04-05T03:57:29.117Z,12.90
2023-04-05T04:12:31.790Z,12.60
2023-04-05T04:27:35.754Z,14.00
2023-04-05T04:42:38.860Z,13.10
2023-04-05T04:57:42.919Z,15.70
2023-04-05T05:12:45.867Z,12.30
2023-04-05T05:27:51.028Z,13.50
2023-04-05T05:42:53.686Z,19.30
2023-04-05T05:57:56.447Z,19.90
2023-04-05T06:12:59.091Z,24.30
2023-04-05T06:28:03.433Z,18.80
2023-04-05T06:43:06.362Z,17.70
2023-04-05T06:58:09.059Z,15.40
2023-04-05T07:28:14.247Z,15.60
2023-04-05T07:43:19.542Z,14.80
2023-04-05T07:58:22.699Z,13.70
2023-04-05T08:13:25.391Z,14.40
2023-04-05T08:28:27.977Z,11.70
2023-04-05T08:43:55.362Z,8.30
2023-04-05T08:59:07.230Z,5.40
2023-04-05T09:14:11.594Z,4.60
2023-04-05T09:29:30.162Z,5.10
2023-04-05T09:45:03.170Z,3.80
2023-04-05T10:00:16.766Z,4.30
2023-04-05T10:15:19.596Z,5.50
2023-04-05T10:45:28.862Z,6.70
2023-04-05T11:00:33.147Z,6.70
2023-04-05T11:15:36.471Z,6.60
2023-04-05T11:30:54.134Z,10.30
2023-04-05T11:45:56.884Z,5.80
2023-04-05T12:16:09.352Z,5.20
2023-04-05T12:31:12.116Z,7.00
2023-04-05T12:46:18.452Z,5.00
2023-04-05T13:01:21.074Z,7.10
2023-04-05T13:31:27.165Z,6.70
2023-04-05T13:46:29.913Z,4.60
2023-04-05T14:16:38.086Z,5.80
2023-04-05T14:31:40.847Z,4.70
2023-04-05T14:46:43.624Z,5.10
2023-04-05T15:01:47.385Z,5.00
2023-04-05T15:16:50.572Z,4.80
2023-04-05T15:31:53.561Z,7.50
2023-04-05T15:46:56.275Z,4.90
2023-04-05T16:17:04.413Z,7.10
2023-04-05T16:32:08.483Z,8.70
2023-04-05T16:47:11.066Z,14.60
2023-04-05T17:17:16.741Z,16.20
2023-04-05T17:32:19.326Z,9.60
2023-04-05T17:47:21.934Z,38.60
2023-04-05T18:02:24.714Z,38.20
2023-04-05T18:17:28.199Z,37.00
2023-04-05T18:32:31.357Z,28.50
2023-04-05T18:47:36.535Z,40.70
2023-04-05T19:02:39.358Z,71.90
2023-04-05T19:17:42.769Z,48.60
2023-04-05T19:32:45.735Z,28.60
2023-04-05T19:47:48.633Z,32.30
2023-04-05T20:02:51.942Z,37.50
2023-04-05T20:17:54.708Z,33.50
2023-04-05T20:32:57.733Z,25.80
2023-04-05T20:48:01.019Z,28.40
2023-04-05T21:03:04.014Z,39.60
2023-04-05T21:18:08.434Z,33.60
2023-04-05T21:33:12.205Z,39.30
2023-04-05T21:48:14.955Z,42.10
2023-04-05T22:03:17.579Z,33.10
2023-04-05T22:18:20.310Z,34.10
2023-04-05T22:33:22.973Z,40.90
2023-04-05T22:48:26.177Z,39.30
2023-04-05T23:03:28.760Z,44.00
2023-04-05T23:18:31.569Z,42.60
2023-04-05T23:33:34.460Z,46.60
2023-04-05T23:48:37.306Z,44.30
